Time;durP1;ratioP1;P1;durP2;ratioP2;P2;SDS_P1;SDS_P2;PMS_P1;PMS_P2;Temp;Humidity;BMP_temperature;BMP_pressure;BME280_temperature;BME280_humidity;BME280_pressure;Samples;Min_cycle;Max_cycle;Signal;HPM_P1;HPM_P2
2021/03/05 00:00:47;;;;;;;51.85;23.35;;;6.50;81.30;;;;;;5026168;28;19916;-71
2021/03/05 00:03:12;;;;;;;;;;;6.50;81.20;;;;;;5026932;28;20030;-71
2021/03/05 00:05:40;;;;;;;59.65;26.35;;;6.50;81.40;;;;;;5027529;28;19908;-71
2021/03/05 00:08:07;;;;;;;75.07;31.33;;;6.50;81.30;;;;;;5025468;28;20053;-71
2021/03/05 00:10:35;;;;;;;57.40;24.13;;;6.40;81.30;;;;;;5025812;28;20041;-70
2021/03/05 00:13:00;;;;;;;56.03;26.70;;;6.40;81.40;;;;;;5025258;28;20057;-71
2021/03/05 00:15:29;;;;;;;;;;;6.40;81.70;;;;;;5027584;28;20446;-71
2021/03/05 00:17:55;;;;;;;57.17;25.20;;;6.40;81.80;;;;;;5026699;28;19996;-71
2021/03/05 00:20:22;;;;;;;;;;;6.40;81.60;;;;;;5027408;28;20462;-71
2021/03/05 00:22:48;;;;;;;67.18;23.17;;;6.40;81.70;;;;;;5026907;28;19912;-71
2021/03/05 00:25:14;;;;;;;;;;;6.40;81.50;;;;;;5027079;28;20041;-71
2021/03/05 00:27:39;;;;;;;53.40;21.30;;;6.40;81.80;;;;;;5027002;28;19955;-71
2021/03/05 00:30:06;;;;;;;;;;;6.40;81.60;;;;;;5025783;28;20037;-70
2021/03/05 00:32:32;;;;;;;52.33;19.38;;;6.40;81.70;;;;;;5025969;28;19952;-70
2021/03/05 00:34:58;;;;;;;55.50;18.05;;;6.50;81.60;;;;;;5026641;28;20060;-69
2021/03/05 00:37:23;;;;;;;;;;;6.50;81.50;;;;;;5026827;28;20069;-71
2021/03/05 00:39:49;;;;;;;47.60;14.57;;;6.50;81.40;;;;;;5025206;28;19931;-70
2021/03/05 00:42:14;;;;;;;;;;;6.50;81.10;;;;;;5026081;28;20389;-72
2021/03/05 00:44:40;;;;;;;44.20;14.50;;;6.60;81.10;;;;;;5025917;28;19920;-70
2021/03/05 00:47:05;;;;;;;;;;;6.60;80.80;;;;;;5026742;28;20017;-70
2021/03/05 00:49:31;;;;;;;39.63;14.38;;;6.60;80.50;;;;;;5025132;28;20416;-71
2021/03/05 00:51:57;;;;;;;;;;;6.70;80.80;;;;;;5025589;28;20030;-72
2021/03/05 00:54:22;;;;;;;42.72;14.15;;;6.70;79.90;;;;;;5026539;28;20008;-72
2021/03/05 00:56:48;;;;;;;29.35;11.43;;;6.70;79.70;;;;;;5026096;28;20402;-71
2021/03/05 00:59:14;;;;;;;;;;;6.70;79.40;;;;;;5025406;28;20045;-71
2021/03/05 01:01:39;;;;;;;27.98;11.05;;;6.80;79.30;;;;;;5026124;28;19982;-71
2021/03/05 01:04:05;;;;;;;;;;;6.80;79.10;;;;;;5026300;28;20025;-71
2021/03/05 01:06:30;;;;;;;40.38;14.63;;;6.80;79.20;;;;;;5026495;28;20357;-72
2021/03/05 01:08:56;;;;;;;38.78;13.57;;;6.80;79.20;;;;;;5026250;28;20038;-71
2021/03/05 01:11:22;;;;;;;;;;;6.70;79.20;;;;;;5026433;28;20030;-72
2021/03/05 01:13:47;;;;;;;36.75;12.55;;;6.70;79.20;;;;;;5024921;28;19915;-70
2021/03/05 01:16:13;;;;;;;;;;;6.70;79.40;;;;;;5026348;28;20599;-71
2021/03/05 01:18:39;;;;;;;39.35;12.85;;;6.60;79.50;;;;;;5024362;28;19951;-71
2021/03/05 01:21:05;;;;;;;;;;;6.60;79.50;;;;;;5026784;28;20446;-72
2021/03/05 01:23:31;;;;;;;32.78;13.32;;;6.60;80.20;;;;;;5025761;28;20402;-71
2021/03/05 01:25:57;;;;;;;41.95;13.35;;;6.60;79.40;;;;;;5025792;28;20030;-72
2021/03/05 01:28:23;;;;;;;;;;;6.60;79.40;;;;;;5026526;28;20157;-71
2021/03/05 01:30:49;;;;;;;29.63;12.70;;;6.60;79.40;;;;;;5025612;28;19924;-71
2021/03/05 01:33:14;;;;;;;32.28;14.30;;;6.60;79.30;;;;;;5024305;28;20056;-72
2021/03/05 01:35:40;;;;;;;39.17;14.43;;;6.60;79.30;;;;;;5024737;28;20033;-70
2021/03/05 01:38:05;;;;;;;;;;;6.60;79.40;;;;;;5026189;28;20808;-71
2021/03/05 01:40:38;;;;;;;40.88;14.05;;;6.70;78.40;;;;;;5029139;28;19916;-73
2021/03/05 01:43:09;;;;;;;38.08;14.38;;;6.70;78.40;;;;;;5029634;28;20079;-71
2021/03/05 01:45:35;;;;;;;37.50;15.45;;;6.70;78.30;;;;;;5028126;28;20065;-70
2021/03/05 01:48:05;;;;;;;30.40;13.73;;;6.70;78.00;;;;;;5029879;28;20061;-71
2021/03/05 01:50:35;;;;;;;44.38;13.52;;;6.70;77.80;;;;;;5029324;28;20514;-71
2021/03/05 01:53:04;;;;;;;29.98;13.93;;;6.80;77.60;;;;;;5029683;28;20025;-71
2021/03/05 01:55:30;;;;;;;45.67;15.15;;;6.70;77.40;;;;;;5029745;28;20032;-71
2021/03/05 01:57:55;;;;;;;;;;;6.70;77.50;;;;;;5028759;28;20033;-71
2021/03/05 02:00:46;;;;;;;32.72;11.60;;;6.80;77.00;;;;;;5029221;28;19909;-71
2021/03/05 02:03:11;;;;;;;38.78;12.40;;;6.80;76.00;;;;;;5029424;28;20406;-71
2021/03/05 02:05:38;;;;;;;;;;;6.90;75.30;;;;;;5030010;28;20032;-71
2021/03/05 02:08:05;;;;;;;36.55;13.05;;;6.90;74.50;;;;;;5029418;28;19909;-71
2021/03/05 02:10:30;;;;;;;39.95;13.65;;;7.00;74.80;;;;;;5029308;28;20510;-71
2021/03/05 02:12:56;;;;;;;;;;;7.00;74.50;;;;;;5028006;28;20083;-70
2021/03/05 02:15:23;;;;;;;30.65;12.75;;;7.00;74.00;;;;;;5029048;28;20390;-71
2021/03/05 02:17:51;;;;;;;43.95;14.55;;;7.00;73.30;;;;;;5029596;28;20033;-71
2021/03/05 02:20:23;;;;;;;32.58;13.60;;;7.10;72.50;;;;;;5027722;28;20504;-70
2021/03/05 02:22:54;;;;;;;33.83;14.52;;;7.10;71.70;;;;;;5028611;28;20553;-71
2021/03/05 02:25:50;;;;;;;38.15;13.30;;;7.10;71.50;;;;;;5027804;28;20486;-71
2021/03/05 02:28:25;;;;;;;37.28;13.38;;;7.10;71.40;;;;;;5027434;28;20120;-72
2021/03/05 02:31:13;;;;;;;34.53;14.00;;;7.10;71.40;;;;;;5028363;28;20033;-71
2021/03/05 02:33:47;;;;;;;34.85;14.65;;;7.00;71.90;;;;;;5027389;28;20032;-72
2021/03/05 02:36:22;;;;;;;35.05;14.45;;;6.90;72.40;;;;;;5029094;28;20383;-71
2021/03/05 02:38:59;;;;;;;40.08;15.15;;;6.90;72.20;;;;;;5029063;28;20036;-71
2021/03/05 02:41:26;;;;;;;42.88;17.67;;;6.90;72.50;;;;;;5028910;28;20030;-71
2021/03/05 02:43:55;;;;;;;44.38;19.33;;;6.90;72.40;;;;;;5027309;28;20051;-71
2021/03/05 02:46:22;;;;;;;42.20;17.48;;;6.90;72.20;;;;;;5028563;28;20075;-71
2021/03/05 02:48:48;;;;;;;42.22;19.63;;;6.90;72.10;;;;;;5028464;28;20033;-71
2021/03/05 02:51:17;;;;;;;49.20;19.92;;;6.80;72.50;;;;;;5027949;28;20029;-71
2021/03/05 02:53:44;;;;;;;51.20;19.50;;;6.80;72.20;;;;;;5027316;28;20581;-71
2021/03/05 02:56:20;;;;;;;47.00;19.73;;;6.80;73.00;;;;;;5028833;28;20072;-71
2021/03/05 02:58:52;;;;;;;40.05;17.10;;;6.70;73.90;;;;;;5028209;28;20032;-70
2021/03/05 03:01:21;;;;;;;34.38;15.60;;;6.70;74.10;;;;;;5028251;28;20030;-71
2021/03/05 03:03:47;;;;;;;37.78;14.93;;;6.60;74.10;;;;;;5028227;28;20095;-71
2021/03/05 03:06:15;;;;;;;27.98;14.10;;;6.60;74.30;;;;;;5028447;28;20029;-71
2021/03/05 03:08:41;;;;;;;34.85;14.80;;;6.50;74.30;;;;;;5027639;28;20036;-71
2021/03/05 03:11:08;;;;;;;32.53;15.02;;;6.50;74.70;;;;;;5026982;28;20510;-70
2021/03/05 03:13:37;;;;;;;37.97;14.20;;;6.40;75.20;;;;;;5028322;28;20048;-71
2021/03/05 03:16:04;;;;;;;30.60;13.10;;;6.40;75.40;;;;;;5027814;28;20120;-71
2021/03/05 03:18:33;;;;;;;27.70;13.32;;;6.30;75.90;;;;;;5027895;28;20036;-71
2021/03/05 03:21:00;;;;;;;29.02;13.77;;;6.20;76.10;;;;;;5026640;28;20129;-72
2021/03/05 03:23:26;;;;;;;28.73;12.98;;;6.10;75.90;;;;;;5028165;28;20028;-71
2021/03/05 03:25:52;;;;;;;34.38;12.43;;;6.10;75.80;;;;;;5027957;28;20037;-71
2021/03/05 03:28:18;;;;;;;;;;;6.00;75.90;;;;;;5028205;28;20536;-70
2021/03/05 03:30:44;;;;;;;22.38;11.57;;;6.00;76.20;;;;;;5025781;28;19960;-70
2021/03/05 03:33:10;;;;;;;28.10;12.70;;;5.90;76.20;;;;;;5028124;28;20080;-71
2021/03/05 03:35:36;;;;;;;31.80;13.65;;;5.80;76.50;;;;;;5027804;28;20562;-71
2021/03/05 03:38:02;;;;;;;;;;;5.80;76.50;;;;;;5026473;28;20545;-70
2021/03/05 03:40:29;;;;;;;35.30;14.45;;;5.70;76.60;;;;;;5026521;28;19909;-70
2021/03/05 03:42:54;;;;;;;36.70;15.68;;;5.70;76.90;;;;;;5025910;28;20034;-71
2021/03/05 03:45:21;;;;;;;;;;;5.70;77.50;;;;;;5027640;28;20049;-71
2021/03/05 03:47:48;;;;;;;36.85;18.60;;;5.60;78.10;;;;;;5027388;28;19944;-72
2021/03/05 03:50:24;;;;;;;39.63;17.98;;;5.60;78.40;;;;;;5026234;28;20034;-72
2021/03/05 03:52:54;;;;;;;37.50;17.67;;;5.60;78.30;;;;;;5027625;28;20033;-71
2021/03/05 03:55:19;;;;;;;45.83;19.15;;;5.50;78.90;;;;;;5027163;28;20041;-70
2021/03/05 03:57:46;;;;;;;;;;;5.50;79.20;;;;;;5027629;28;20508;-71
2021/03/05 04:00:14;;;;;;;41.75;18.85;;;5.50;79.40;;;;;;5025680;28;19905;-69
2021/03/05 04:02:41;;;;;;;44.47;17.80;;;5.50;80.00;;;;;;5025191;28;20085;-71
2021/03/05 04:05:11;;;;;;;43.13;18.52;;;5.40;79.80;;;;;;5027463;28;20029;-70
2021/03/05 04:07:40;;;;;;;45.28;17.83;;;5.40;79.50;;;;;;5027030;28;20068;-71
2021/03/05 04:10:06;;;;;;;43.17;18.88;;;5.40;79.20;;;;;;5027114;28;20061;-71
2021/03/05 04:12:32;;;;;;;44.80;18.90;;;5.40;79.30;;;;;;5025558;28;20029;-71
2021/03/05 04:14:58;;;;;;;;;;;5.40;79.20;;;;;;5027269;28;20486;-71
2021/03/05 04:17:26;;;;;;;53.50;27.67;;;5.40;79.00;;;;;;5025899;28;19909;-71
2021/03/05 04:19:52;;;;;;;41.90;22.55;;;5.30;78.90;;;;;;5027078;28;20430;-71
2021/03/05 04:22:18;;;;;;;48.58;21.95;;;5.30;78.90;;;;;;5026627;28;20087;-71
2021/03/05 04:24:44;;;;;;;;;;;5.30;79.00;;;;;;5025982;28;20045;-71
2021/03/05 04:27:11;;;;;;;73.40;32.47;;;5.30;79.00;;;;;;5026710;28;19909;-70
2021/03/05 04:29:37;;;;;;;61.40;28.42;;;5.30;78.60;;;;;;5026619;28;20056;-72
2021/03/05 04:32:03;;;;;;;;;;;5.30;78.50;;;;;;5025799;28;20017;-71
2021/03/05 04:34:28;;;;;;;44.95;21.90;;;5.20;78.30;;;;;;5026483;28;19917;-71
2021/03/05 04:36:54;;;;;;;50.53;23.27;;;5.20;78.10;;;;;;5024830;28;20116;-70
2021/03/05 04:39:20;;;;;;;47.35;25.63;;;5.30;77.90;;;;;;5026908;28;20030;-70
2021/03/05 04:41:45;;;;;;;;;;;5.20;78.00;;;;;;5026662;28;20564;-70
2021/03/05 04:44:11;;;;;;;42.03;19.25;;;5.20;78.20;;;;;;5026261;28;19920;-71
2021/03/05 04:46:37;;;;;;;;;;;5.10;78.50;;;;;;5026633;28;20068;-71
2021/03/05 04:49:03;;;;;;;66.28;24.90;;;5.10;79.00;;;;;;5026643;28;19913;-71
2021/03/05 04:51:28;;;;;;;57.60;25.15;;;5.00;79.00;;;;;;5025104;28;20120;-71
2021/03/05 04:53:54;;;;;;;;;;;5.00;79.40;;;;;;5026912;28;20171;-72
2021/03/05 04:56:19;;;;;;;64.88;28.60;;;4.90;79.70;;;;;;5026338;28;19916;-71
2021/03/05 04:58:45;;;;;;;;;;;4.90;80.10;;;;;;5025159;28;20033;-70
2021/03/05 05:01:10;;;;;;;56.30;22.67;;;4.80;80.30;;;;;;5026095;28;20039;-70
2021/03/05 05:03:36;;;;;;;;;;;4.80;80.60;;;;;;5026875;28;20133;-71
2021/03/05 05:06:02;;;;;;;46.05;21.10;;;4.80;81.00;;;;;;5026006;28;20293;-71
2021/03/05 05:08:27;;;;;;;;;;;4.90;81.40;;;;;;5025363;28;20520;-70
2021/03/05 05:10:53;;;;;;;52.78;21.85;;;4.90;81.40;;;;;;5026286;28;20499;-71
2021/03/05 05:13:19;;;;;;;44.38;19.10;;;4.90;81.40;;;;;;5025241;28;20040;-71
2021/03/05 05:15:44;;;;;;;45.45;22.60;;;5.00;81.40;;;;;;5026209;28;20037;-70
2021/03/05 05:18:10;;;;;;;;;;;5.00;81.50;;;;;;5023612;28;20033;-70
2021/03/05 05:20:35;;;;;;;63.40;26.80;;;5.10;81.70;;;;;;5026280;28;19909;-70
2021/03/05 05:23:01;;;;;;;;;;;5.10;81.60;;;;;;5025301;28;20375;-71
2021/03/05 05:25:26;;;;;;;158.07;48.70;;;5.10;81.40;;;;;;5025617;28;19970;-70
2021/03/05 05:27:52;;;;;;;;;;;5.10;81.10;;;;;;5025232;28;20029;-70
2021/03/05 05:30:18;;;;;;;83.90;34.38;;;5.10;81.10;;;;;;5025740;28;19917;-70
2021/03/05 05:32:43;;;;;;;;;;;5.10;81.30;;;;;;5026368;28;20029;-70
2021/03/05 05:35:09;;;;;;;78.60;33.42;;;5.10;81.70;;;;;;5026302;28;19912;-71
2021/03/05 05:37:35;;;;;;;;;;;5.10;81.50;;;;;;5026021;28;20033;-70
2021/03/05 05:40:01;;;;;;;69.80;30.55;;;5.20;81.60;;;;;;5026082;28;19912;-71
2021/03/05 05:42:27;;;;;;;;;;;5.30;81.40;;;;;;5026434;28;20033;-70
2021/03/05 05:44:52;;;;;;;64.53;28.67;;;5.40;81.40;;;;;;5028938;28;20397;-71
2021/03/05 05:47:18;;;;;;;;;;;5.50;81.40;;;;;;5026293;28;20045;-71
2021/03/05 05:49:44;;;;;;;87.47;36.03;;;5.50;81.00;;;;;;5025825;28;19917;-71
2021/03/05 05:52:20;;;;;;;112.22;46.22;;;5.60;80.90;;;;;;5025860;28;20022;-70
2021/03/05 05:54:48;;;;;;;95.83;44.03;;;5.60;80.20;;;;;;5024071;28;20418;-71
2021/03/05 05:57:14;;;;;;;97.55;46.90;;;5.60;81.20;;;;;;5025770;28;20050;-71
2021/03/05 05:59:40;;;;;;;91.88;44.05;;;5.70;80.60;;;;;;5024993;28;20037;-71
2021/03/05 06:02:09;;;;;;;84.90;39.80;;;5.70;80.10;;;;;;5025728;28;20025;-71
2021/03/05 06:04:36;;;;;;;106.65;46.08;;;5.80;80.40;;;;;;5025272;28;20029;-71
2021/03/05 06:07:05;;;;;;;133.00;50.53;;;5.80;80.40;;;;;;5024267;28;20106;-70
2021/03/05 06:09:32;;;;;;;140.68;52.00;;;5.90;80.30;;;;;;5025510;28;20498;-70
2021/03/05 06:11:58;;;;;;;103.70;45.55;;;5.90;80.60;;;;;;5025732;28;20656;-70
2021/03/05 06:14:24;;;;;;;114.63;49.92;;;6.00;80.70;;;;;;5025412;28;20036;-71
2021/03/05 06:16:57;;;;;;;;;;;6.00;80.40;;;;;;5028374;28;20037;-71
2021/03/05 06:19:24;;;;;;;119.45;49.30;;;6.10;80.10;;;;;;5024274;28;19913;-70
2021/03/05 06:21:51;;;;;;;106.53;45.90;;;6.20;80.00;;;;;;5024306;28;20494;-71
2021/03/05 06:24:17;;;;;;;83.10;41.22;;;6.30;80.00;;;;;;5033043;28;20554;-70
2021/03/05 06:26:46;;;;;;;;;;;6.50;78.90;;;;;;5034180;28;20127;-71
2021/03/05 06:29:12;;;;;;;79.45;34.45;;;6.70;78.10;;;;;;5028761;28;19920;-70
2021/03/05 06:31:38;;;;;;;;;;;6.80;77.30;;;;;;5029099;28;20406;-70
2021/03/05 06:34:04;;;;;;;67.82;33.15;;;6.80;77.00;;;;;;5028643;28;19960;-70
2021/03/05 06:36:30;;;;;;;91.95;42.60;;;6.90;77.10;;;;;;5027451;28;20555;-70
2021/03/05 06:38:57;;;;;;;108.53;50.28;;;7.00;77.40;;;;;;5028231;28;20036;-71
2021/03/05 06:41:34;;;;;;;124.20;53.20;;;7.00;77.40;;;;;;5028912;28;20033;-70
2021/03/05 06:44:03;;;;;;;91.90;47.15;;;7.20;78.20;;;;;;5027970;28;20512;-70
2021/03/05 06:46:37;;;;;;;98.10;45.55;;;7.30;77.90;;;;;;5027035;28;20434;-70
2021/03/05 06:49:10;;;;;;;103.68;48.38;;;7.30;77.70;;;;;;5028687;28;20486;-71
2021/03/05 06:51:36;;;;;;;114.65;48.85;;;7.40;77.80;;;;;;5026831;28;20030;-71
2021/03/05 06:54:13;;;;;;;130.90;56.40;;;7.50;77.20;;;;;;5028669;28;20056;-72
2021/03/05 06:56:42;;;;;;;125.05;53.70;;;7.60;76.80;;;;;;5028408;28;20108;-71
2021/03/05 06:59:10;;;;;;;122.00;54.13;;;7.70;77.40;;;;;;5028004;28;20096;-70
2021/03/05 07:01:52;;;;;;;108.32;48.53;;;7.70;76.30;;;;;;5027120;28;20029;-71
2021/03/05 07:04:22;;;;;;;101.30;45.35;;;7.70;75.30;;;;;;5028622;28;20100;-70
2021/03/05 07:06:59;;;;;;;82.85;38.42;;;7.80;75.20;;;;;;5026745;28;20029;-71
2021/03/05 07:09:28;;;;;;;71.53;32.60;;;7.80;74.70;;;;;;5028291;28;20037;-70
2021/03/05 07:11:55;;;;;;;102.88;45.85;;;7.90;74.30;;;;;;5027916;28;20490;-71
2021/03/05 07:14:32;;;;;;;111.75;47.65;;;7.90;74.70;;;;;;5028211;28;20026;-71
2021/03/05 07:16:59;;;;;;;163.13;63.38;;;8.00;75.80;;;;;;5027802;28;20087;-72
2021/03/05 07:19:28;;;;;;;134.48;57.65;;;8.00;76.60;;;;;;5026507;28;20036;-71
2021/03/05 07:21:54;;;;;;;95.80;42.80;;;8.10;76.60;;;;;;5027077;28;20032;-71
2021/03/05 07:24:22;;;;;;;92.05;44.53;;;8.20;76.60;;;;;;5027827;28;20025;-71
2021/03/05 07:27:04;;;;;;;81.90;37.05;;;8.20;77.00;;;;;;5026099;28;20036;-70
2021/03/05 07:29:32;;;;;;;60.72;29.60;;;8.20;77.50;;;;;;5027580;28;20111;-69
2021/03/05 07:32:03;;;;;;;47.85;25.13;;;8.20;76.90;;;;;;5026123;28;20398;-70
2021/03/05 07:34:30;;;;;;;45.03;21.13;;;8.20;75.50;;;;;;5027564;28;20033;-71
2021/03/05 07:37:03;;;;;;;37.28;18.92;;;8.20;74.60;;;;;;5026796;28;20045;-70
2021/03/05 07:39:38;;;;;;;41.90;19.63;;;8.30;74.00;;;;;;5027134;28;20072;-71
2021/03/05 07:42:07;;;;;;;39.00;18.42;;;8.30;73.40;;;;;;5027273;28;20088;-71
2021/03/05 07:44:32;;;;;;;48.15;21.88;;;8.30;73.10;;;;;;5026147;28;20100;-71
2021/03/05 07:47:00;;;;;;;;;;;8.30;72.70;;;;;;5026722;28;20474;-71
2021/03/05 07:49:31;;;;;;;37.75;20.60;;;8.40;72.60;;;;;;5027556;28;19912;-71
2021/03/05 07:51:58;;;;;;;42.47;20.90;;;8.40;73.60;;;;;;5027159;28;20441;-71
2021/03/05 07:54:39;;;;;;;35.17;20.15;;;8.40;73.70;;;;;;5027376;28;20072;-70
2021/03/05 07:57:25;;;;;;;41.13;21.88;;;8.40;73.70;;;;;;5027214;28;20060;-71
2021/03/05 07:59:52;;;;;;;36.88;20.48;;;8.40;73.40;;;;;;5027075;28;20103;-71
2021/03/05 08:02:22;;;;;;;41.10;20.90;;;8.40;73.20;;;;;;5026180;28;20033;-72
2021/03/05 08:04:51;;;;;;;44.22;21.23;;;8.40;72.90;;;;;;5025719;28;20036;-71
2021/03/05 08:07:18;;;;;;;41.83;21.77;;;8.50;72.50;;;;;;5027246;28;20045;-71
2021/03/05 08:09:44;;;;;;;46.72;21.13;;;8.50;71.80;;;;;;5027202;28;20057;-72
2021/03/05 08:12:32;;;;;;;;;;;8.60;71.90;;;;;;5027015;28;20075;-71
2021/03/05 08:15:07;;;;;;;43.08;20.55;;;8.60;71.30;;;;;;5026719;28;19913;-70
2021/03/05 08:17:40;;;;;;;38.42;21.10;;;8.70;70.80;;;;;;5027159;28;20028;-72
2021/03/05 08:20:10;;;;;;;35.38;20.65;;;8.70;70.90;;;;;;5026775;28;20107;-71
2021/03/05 08:22:58;;;;;;;38.97;20.60;;;8.70;71.00;;;;;;5027089;28;20044;-71
2021/03/05 08:25:28;;;;;;;37.33;19.95;;;8.70;70.50;;;;;;5026352;28;20395;-71
2021/03/05 08:27:58;;;;;;;45.35;21.80;;;8.70;70.90;;;;;;5026466;28;20030;-70
2021/03/05 08:30:29;;;;;;;39.50;19.83;;;8.70;71.60;;;;;;5026955;28;20776;-72
2021/03/05 08:32:56;;;;;;;37.70;21.05;;;8.70;72.20;;;;;;5024753;28;20095;-70
2021/03/05 08:35:31;;;;;;;39.53;20.80;;;8.70;72.90;;;;;;5034823;28;20029;-71
2021/03/05 08:38:03;;;;;;;32.70;18.45;;;8.70;73.60;;;;;;5034590;28;20087;-72
2021/03/05 08:40:32;;;;;;;34.50;18.90;;;8.80;74.60;;;;;;5034368;28;20021;-69
2021/03/05 08:43:09;;;;;;;34.13;19.63;;;8.90;74.40;;;;;;5033453;28;20025;-71
2021/03/05 08:45:42;;;;;;;32.95;17.45;;;9.20;74.50;;;;;;5034716;28;20125;-71
2021/03/05 08:48:09;;;;;;;35.25;18.25;;;9.40;74.30;;;;;;5033026;28;20030;-71
2021/03/05 08:50:37;;;;;;;32.20;16.83;;;9.60;73.10;;;;;;5032854;28;20493;-71
2021/03/05 08:53:08;;;;;;;32.78;18.92;;;9.70;72.90;;;;;;5032665;28;20393;-72
2021/03/05 08:55:35;;;;;;;42.05;18.23;;;9.90;72.30;;;;;;5043815;28;20528;-70
2021/03/05 08:58:02;;;;;;;32.53;17.30;;;10.10;71.20;;;;;;5045921;28;20017;-72
2021/03/05 09:00:32;;;;;;;44.75;20.13;;;10.20;70.00;;;;;;5044923;28;20029;-71
2021/03/05 09:03:18;;;;;;;37.65;19.75;;;10.40;68.60;;;;;;5046025;28;20099;-72
2021/03/05 09:05:50;;;;;;;37.30;18.77;;;10.70;66.90;;;;;;5046073;28;20087;-70
2021/03/05 09:08:19;;;;;;;38.92;19.38;;;10.80;65.90;;;;;;5045705;28;20021;-72
2021/03/05 09:10:55;;;;;;;32.95;18.55;;;11.00;64.50;;;;;;5044182;28;20106;-71
2021/03/05 09:13:21;;;;;;;43.70;18.42;;;11.00;64.30;;;;;;5045600;28;20509;-71
2021/03/05 09:15:54;;;;;;;33.70;18.45;;;11.20;62.60;;;;;;5045945;28;20032;-71
2021/03/05 09:18:40;;;;;;;34.65;19.45;;;11.30;63.30;;;;;;5045524;28;20744;-71
2021/03/05 09:21:08;;;;;;;41.33;18.53;;;11.50;61.90;;;;;;5044942;28;20056;-71
2021/03/05 09:23:37;;;;;;;33.58;20.02;;;11.50;62.10;;;;;;5045564;28;20122;-71
2021/03/05 09:26:08;;;;;;;37.78;17.98;;;11.40;60.30;;;;;;5045724;28;20033;-72
2021/03/05 09:28:39;;;;;;;41.40;20.52;;;11.50;60.60;;;;;;5045926;28;20036;-70
2021/03/05 09:31:06;;;;;;;38.83;21.48;;;11.40;61.30;;;;;;5046015;28;20631;-71
2021/03/05 09:33:34;;;;;;;36.40;20.75;;;11.30;61.70;;;;;;5045109;28;20649;-71
2021/03/05 09:36:07;;;;;;;38.70;21.88;;;11.20;62.90;;;;;;5046077;28;20029;-71
2021/03/05 09:38:35;;;;;;;42.80;23.05;;;11.10;63.60;;;;;;5044250;28;20021;-71
2021/03/05 09:41:20;;;;;;;40.17;21.90;;;11.10;64.00;;;;;;5045245;28;20044;-72
2021/03/05 09:44:01;;;;;;;46.22;22.25;;;11.10;63.30;;;;;;5044525;28;20082;-71
2021/03/05 09:46:29;;;;;;;43.15;22.65;;;11.00;63.50;;;;;;5045888;28;20056;-71
2021/03/05 09:48:56;;;;;;;38.67;21.35;;;11.00;63.30;;;;;;5044230;28;20408;-71
2021/03/05 09:51:23;;;;;;;44.08;21.58;;;10.90;63.90;;;;;;5043942;28;20033;-71
2021/03/05 09:53:53;;;;;;;35.88;19.88;;;10.80;64.50;;;;;;5045637;28;20120;-71
2021/03/05 09:56:20;;;;;;;34.17;19.23;;;10.80;64.10;;;;;;5039920;28;20084;-71
2021/03/05 09:58:56;;;;;;;38.00;21.08;;;10.90;63.30;;;;;;5045218;28;20033;-70
2021/03/05 10:01:22;;;;;;;40.78;21.10;;;10.80;63.50;;;;;;5048769;28;20107;-71
2021/03/05 10:03:58;;;;;;;39.60;19.88;;;10.90;63.20;;;;;;5049568;28;20045;-70
2021/03/05 10:06:26;;;;;;;46.88;19.58;;;11.00;63.00;;;;;;5047777;28;20094;-71
2021/03/05 10:09:09;;;;;;;33.60;19.02;;;11.10;62.20;;;;;;5047528;28;20044;-69
2021/03/05 10:11:39;;;;;;;28.10;17.40;;;11.20;62.60;;;;;;5048462;28;20082;-69
2021/03/05 10:14:36;;;;;;;33.20;17.83;;;11.30;62.00;;;;;;5049339;28;20310;-71
2021/03/05 10:17:13;;;;;;;30.75;16.77;;;11.40;61.60;;;;;;5043579;28;20493;-71
2021/03/05 10:19:40;;;;;;;35.08;19.48;;;11.50;61.60;;;;;;5047867;28;20029;-71
2021/03/05 10:22:07;;;;;;;31.67;17.02;;;11.40;61.40;;;;;;5048869;28;20083;-71
2021/03/05 10:24:34;;;;;;;33.97;17.08;;;11.40;61.30;;;;;;5049173;28;20029;-71
2021/03/05 10:29:48;;;;;;;;;;;11.30;62.80;;;;;;5049051;28;20039;-71
2021/03/05 10:32:27;;;;;;;27.67;14.45;;;11.30;62.40;;;;;;5048988;28;20392;-70
2021/03/05 10:34:55;;;;;;;25.75;13.75;;;11.40;61.70;;;;;;5047751;28;20056;-71
2021/03/05 10:37:21;;;;;;;29.70;14.18;;;11.40;62.60;;;;;;5047200;28;20501;-71
2021/03/05 10:39:48;;;;;;;26.70;14.23;;;11.40;63.10;;;;;;5048365;28;20482;-71
2021/03/05 10:42:16;;;;;;;24.60;13.93;;;11.50;62.90;;;;;;5048803;28;20421;-71
2021/03/05 10:44:46;;;;;;;22.42;14.55;;;11.50;63.00;;;;;;5047393;28;20786;-71
2021/03/05 10:47:14;;;;;;;24.15;13.90;;;11.40;62.70;;;;;;5048608;28;20036;-70
2021/03/05 10:49:41;;;;;;;26.10;14.18;;;11.40;63.30;;;;;;5048577;28;20048;-72
2021/03/05 10:52:12;;;;;;;24.17;14.38;;;11.40;63.80;;;;;;5046848;28;20450;-71
2021/03/05 10:54:39;;;;;;;23.63;14.68;;;11.50;62.30;;;;;;5046615;28;20021;-71
2021/03/05 10:57:07;;;;;;;28.73;16.67;;;11.50;61.80;;;;;;5048638;28;20040;-71
2021/03/05 10:59:32;;;;;;;31.25;16.73;;;11.50;61.80;;;;;;5048373;28;20039;-71
2021/03/05 11:01:58;;;;;;;;;;;11.50;62.20;;;;;;5048788;28;20029;-71
2021/03/05 11:04:25;;;;;;;32.78;18.15;;;11.60;62.10;;;;;;5048058;28;19916;-71
2021/03/05 11:06:51;;;;;;;29.75;18.48;;;11.70;61.80;;;;;;5046984;28;20032;-72
2021/03/05 11:09:17;;;;;;;;;;;11.70;61.50;;;;;;5048734;28;20036;-71
2021/03/05 11:11:43;;;;;;;27.75;19.80;;;11.80;61.50;;;;;;5045539;28;19912;-71
2021/03/05 11:14:08;;;;;;;;;;;11.90;61.10;;;;;;5046912;28;20500;-71
2021/03/05 11:16:34;;;;;;;28.83;17.38;;;11.80;61.30;;;;;;5048212;28;20021;-71
2021/03/05 11:19:00;;;;;;;;;;;11.80;60.90;;;;;;5048417;28;20033;-71
2021/03/05 11:21:26;;;;;;;27.50;18.38;;;11.80;60.80;;;;;;5046342;28;19908;-71
2021/03/05 11:23:53;;;;;;;;;;;11.80;60.90;;;;;;5047875;28;20456;-72
2021/03/05 11:26:19;;;;;;;33.05;19.13;;;11.70;61.60;;;;;;5047747;28;20379;-70
2021/03/05 11:28:45;;;;;;;;;;;11.60;62.40;;;;;;5046111;28;20533;-71
2021/03/05 11:31:11;;;;;;;38.25;21.00;;;11.70;62.30;;;;;;5047925;28;19944;-71
2021/03/05 11:33:37;;;;;;;50.50;21.92;;;11.70;62.30;;;;;;5048092;28;20029;-70
2021/03/05 11:36:03;;;;;;;38.53;23.58;;;11.60;62.50;;;;;;5047385;28;20020;-71
2021/03/05 11:38:29;;;;;;;;;;;11.70;62.70;;;;;;5047798;28;20040;-70
2021/03/05 11:40:55;;;;;;;37.95;23.98;;;11.70;62.00;;;;;;5047182;28;19936;-71
2021/03/05 11:43:20;;;;;;;;;;;11.60;62.80;;;;;;5047548;28;20027;-69
2021/03/05 11:45:46;;;;;;;48.00;26.25;;;11.60;62.60;;;;;;5047183;28;19927;-72
2021/03/05 11:48:11;;;;;;;;;;;11.40;62.30;;;;;;5048124;28;20489;-71
2021/03/05 11:50:37;;;;;;;42.72;25.02;;;11.20;63.20;;;;;;5046865;28;19916;-71
2021/03/05 11:53:02;;;;;;;;;;;10.90;64.00;;;;;;5047805;28;20056;-71
2021/03/05 11:55:32;;;;;;;44.17;26.35;;;10.80;64.40;;;;;;5045168;28;20377;-68
2021/03/05 11:58:01;;;;;;;43.95;26.95;;;10.50;65.60;;;;;;5045513;28;20032;-69
2021/03/05 12:00:28;;;;;;;45.08;27.52;;;10.30;66.20;;;;;;5047017;28;20056;-71
2021/03/05 12:02:54;;;;;;;45.92;26.67;;;10.20;67.40;;;;;;5047315;28;20021;-71
2021/03/05 12:05:20;;;;;;;;;;;10.00;68.00;;;;;;5047444;28;20067;-71
2021/03/05 12:07:45;;;;;;;51.85;28.40;;;9.90;68.10;;;;;;5045740;28;19916;-71
2021/03/05 12:10:11;;;;;;;;;;;9.90;68.90;;;;;;5046772;28;20037;-70
2021/03/05 12:12:37;;;;;;;40.03;23.08;;;9.80;69.10;;;;;;5045595;28;20011;-71
2021/03/05 12:15:03;;;;;;;;;;;9.80;68.90;;;;;;5047814;28;20556;-71
2021/03/05 12:17:28;;;;;;;37.95;22.05;;;9.80;68.70;;;;;;5046518;28;19908;-69
2021/03/05 12:19:54;;;;;;;;;;;9.80;68.90;;;;;;5047432;28;20031;-71
2021/03/05 12:22:19;;;;;;;40.72;24.42;;;9.70;69.50;;;;;;5046318;28;19909;-71
2021/03/05 12:24:45;;;;;;;40.90;23.88;;;9.70;69.70;;;;;;5046224;28;20064;-71
2021/03/05 12:27:11;;;;;;;36.55;23.15;;;9.70;69.90;;;;;;5046718;28;20117;-71
2021/03/05 12:29:36;;;;;;;54.17;23.52;;;9.60;70.40;;;;;;5046119;28;20094;-71
2021/03/05 12:32:02;;;;;;;;;;;9.60;70.70;;;;;;5045848;28;20493;-71
2021/03/05 12:34:27;;;;;;;36.92;21.98;;;9.60;71.00;;;;;;5045428;28;20039;-70
2021/03/05 12:36:53;;;;;;;;;;;9.60;70.40;;;;;;5046454;28;20033;-70
2021/03/05 12:39:18;;;;;;;37.88;21.40;;;9.60;70.10;;;;;;5046127;28;20284;-71
2021/03/05 12:41:44;;;;;;;;;;;9.50;70.30;;;;;;5045778;28;20036;-71
2021/03/05 12:44:10;;;;;;;35.55;20.92;;;9.50;70.50;;;;;;5046448;28;20397;-71
2021/03/05 12:46:35;;;;;;;;;;;9.40;70.80;;;;;;5045262;28;20501;-70
2021/03/05 12:49:02;;;;;;;38.25;21.83;;;9.30;71.00;;;;;;5044975;28;19919;-70
2021/03/05 12:51:27;;;;;;;34.53;21.40;;;9.30;71.20;;;;;;5044683;28;20064;-70
2021/03/05 12:53:53;;;;;;;;;;;9.20;71.60;;;;;;5046857;28;20114;-71
2021/03/05 12:56:18;;;;;;;28.17;18.73;;;9.10;71.60;;;;;;5045990;28;19912;-71
2021/03/05 12:58:44;;;;;;;;;;;9.10;71.90;;;;;;5046229;28;20036;-70
2021/03/05 13:01:10;;;;;;;30.58;19.05;;;9.00;72.10;;;;;;5046446;28;20431;-70
2021/03/05 13:03:35;;;;;;;;;;;9.00;72.30;;;;;;5046363;28;20013;-70